aviador You're here:

KM25 Decoded Metar

in
Report Time2017-09-20 20:35:00
UTC Time2017-09-20 20:14:40
Flight Rules vfr VFR
Wind160° at 04 kt
W.Rank160° ranks 7
Current wind is below 160° avg. (5.8)
Visibility9999 m
Phenomena:N/A
Clouds:Scattered 047 Hf
Broken 060 Hf
Broken 085 Hf
Expected CloudBase > 3,600 ft AGL from Temp-Dew spread
Ceiling6,000 ft
Temp31°C
Dew Point22°C (59% RH)
Heat Index34.6°C
QNH1015 hPa
Raw Report
KM25 202035Z AUTO 16004KT 10SM SCT047 BKN060 BKN085 31/22 A2997
RMK AO2 PWINO=

Extra information for KM25:More info

Social comments